Terminal Aerodrome Forecast
Issued by NWS

Home | Current Version | Previous Version | Text Only | Print | Product List | Glossary On
Versions: 1 2 3 4 5 6 7 8 9 10 11 12 13 14 15 16 17 18 19 20 21 22 23 24 25 26
000
FTUS44 KOUN 201126
TAFWWR
TAF
KWWR 201126Z 2012/2112 18012KT P6SM SCT100 BKN250
     FM201500 25012KT P6SM SCT250
     FM201800 35015G24KT P6SM SKC
     FM210000 32008KT P6SM SKC=

USA.gov is the U.S. government's official web portal to all federal, state and local government web resources and services.